Time;durP1;ratioP1;P1;durP2;ratioP2;P2;SDS_P1;SDS_P2;PMS_P1;PMS_P2;Temp;Humidity;BMP_temperature;BMP_pressure;BME280_temperature;BME280_humidity;BME280_pressure;Samples;Min_cycle;Max_cycle;Signal;HPM_P1;HPM_P2
2022/04/24 00:01:02;;;;;;;10.68;9.57;;;;;;;8.63;56.80;99695.13;5042416;28;20489;-24
2022/04/24 00:03:27;;;;;;;11.48;9.55;;;;;;;8.60;56.82;99691.66;5044255;28;20041;-24
2022/04/24 00:05:53;;;;;;;10.57;9.52;;;;;;;8.57;57.01;99691.69;5040806;28;20053;-24
2022/04/24 00:08:18;;;;;;;10.48;9.40;;;;;;;8.52;56.87;99683.00;5041943;28;20112;-24
2022/04/24 00:10:45;;;;;;;11.73;9.90;;;;;;;8.53;56.99;99679.50;5025667;28;20029;-25
2022/04/24 00:13:11;;;;;;;11.25;10.15;;;;;;;8.50;56.99;99684.75;5041206;28;20123;-24
2022/04/24 00:15:37;;;;;;;11.07;9.98;;;;;;;8.48;57.15;99671.66;5040671;28;20017;-23
2022/04/24 00:18:02;;;;;;;10.65;9.65;;;;;;;8.47;57.11;99671.66;5038995;28;20028;-24
2022/04/24 00:20:27;;;;;;;11.40;10.20;;;;;;;8.44;57.10;99672.59;5043189;28;20033;-24
2022/04/24 00:22:53;;;;;;;11.73;10.52;;;;;;;8.42;57.27;99666.50;5037394;28;20662;-24
2022/04/24 00:25:18;;;;;;;11.00;9.90;;;;;;;8.41;57.34;99662.13;5040005;28;20531;-24
2022/04/24 00:27:43;;;;;;;11.10;9.95;;;;;;;8.38;57.34;99666.56;5041652;28;20497;-24
2022/04/24 00:30:09;;;;;;;10.88;9.77;;;;;;;8.39;57.14;99663.94;5036958;28;20428;-24
2022/04/24 00:32:34;;;;;;;10.77;9.68;;;;;;;8.36;57.54;99660.50;5039426;28;20396;-24
2022/04/24 00:35:00;;;;;;;11.10;10.00;;;;;;;8.37;57.29;99654.34;5043486;28;20021;-24
2022/04/24 00:37:25;;;;;;;11.10;10.00;;;;;;;8.32;57.30;99650.03;5042554;28;20094;-24
2022/04/24 00:39:50;;;;;;;10.35;9.40;;;;;;;8.32;57.62;99644.78;5041331;28;20120;-24
2022/04/24 00:42:17;;;;;;;10.70;9.60;;;;;;;8.31;57.18;99648.28;5038366;28;20064;-24
2022/04/24 00:44:42;;;;;;;10.50;9.48;;;;;;;8.28;57.65;99645.72;5034123;28;20026;-24
2022/04/24 00:47:15;;;;;;;10.40;9.40;;;;;;;8.25;57.63;99637.88;5036918;28;20171;-24
2022/04/24 00:49:41;;;;;;;10.55;9.48;;;;;;;8.26;57.86;99636.09;5042454;28;20400;-24
2022/04/24 00:52:06;;;;;;;11.30;10.20;;;;;;;8.22;57.51;99637.94;5039444;28;20028;-24
2022/04/24 00:54:32;;;;;;;10.95;9.85;;;;;;;8.21;57.92;99638.84;5033886;28;20630;-24
2022/04/24 00:56:57;;;;;;;10.90;9.90;;;;;;;8.18;57.81;99624.00;5039370;28;20037;-24
2022/04/24 00:59:23;;;;;;;10.80;9.73;;;;;;;8.18;57.73;99631.88;5035818;28;20028;-24
2022/04/24 01:01:48;;;;;;;11.10;10.00;;;;;;;8.16;57.82;99628.38;5034463;28;20373;-24
2022/04/24 01:04:14;;;;;;;10.57;9.63;;;;;;;8.15;57.92;99626.66;5038366;28;20041;-23
2022/04/24 01:06:41;;;;;;;10.68;9.43;;;;;;;8.13;58.16;99620.56;5043680;28;20033;-24
2022/04/24 01:09:11;;;;;;;11.05;9.88;;;;;;;8.11;58.02;99621.47;5038362;28;20029;-24
2022/04/24 01:11:37;;;;;;;11.38;10.20;;;;;;;8.11;58.07;99624.97;5035875;28;20120;-24
2022/04/24 01:14:03;;;;;;;10.70;9.70;;;;;;;8.08;58.03;99619.78;5037999;28;20612;-24
2022/04/24 01:16:29;;;;;;;10.73;9.57;;;;;;;8.06;58.29;99626.78;5036971;28;20078;-24
2022/04/24 01:18:55;;;;;;;10.60;9.50;;;;;;;8.07;58.15;99623.28;5042282;28;20123;-24
2022/04/24 01:21:20;;;;;;;9.85;8.85;;;;;;;8.04;58.19;99612.84;5038746;28;20048;-24
2022/04/24 01:23:45;;;;;;;10.95;9.80;;;;;;;8.03;58.23;99606.69;5042972;28;20021;-24
2022/04/24 01:26:12;;;;;;;10.77;9.68;;;;;;;8.01;58.50;99605.00;5039743;28;20164;-24
2022/04/24 01:28:37;;;;;;;10.50;9.45;;;;;;;8.00;58.22;99605.91;5047139;28;20753;-24
2022/04/24 01:31:03;;;;;;;10.55;9.45;;;;;;;7.99;58.46;99601.50;5042713;28;20093;-23
2022/04/24 01:33:28;;;;;;;11.32;9.77;;;;;;;7.98;58.48;99602.41;5047639;28;20029;-25
2022/04/24 01:35:53;;;;;;;10.02;8.80;;;;;;;7.96;58.36;99594.56;5046149;28;20056;-24
2022/04/24 01:38:19;;;;;;;10.65;9.55;;;;;;;7.96;58.83;99605.06;5042852;28;20967;-23
2022/04/24 01:40:44;;;;;;;11.15;9.95;;;;;;;7.94;58.53;99601.59;5045907;28;20060;-24
2022/04/24 01:43:09;;;;;;;9.85;8.90;;;;;;;7.93;58.56;99600.72;5046708;28;20473;-24
2022/04/24 01:45:35;;;;;;;9.90;8.90;;;;;;;7.92;59.03;99595.50;5049628;28;20393;-24
2022/04/24 01:48:00;;;;;;;10.18;9.18;;;;;;;7.91;58.75;99593.78;5046599;28;20028;-24
2022/04/24 01:50:25;;;;;;;10.50;9.40;;;;;;;7.92;58.67;99592.88;5038068;28;20111;-25
2022/04/24 01:52:51;;;;;;;10.95;9.63;;;;;;;7.90;58.79;99598.16;5036503;28;20083;-24
2022/04/24 01:55:18;;;;;;;11.23;8.95;;;;;;;7.88;58.82;99592.06;5042988;28;21128;-24
2022/04/24 01:57:43;;;;;;;11.35;10.15;;;;;;;7.88;58.76;99593.81;5046041;28;20044;-24
2022/04/24 02:00:09;;;;;;;10.23;9.27;;;;;;;7.86;59.19;99588.59;5044469;28;20028;-24
2022/04/24 02:02:34;;;;;;;10.77;8.98;;;;;;;7.86;58.86;99590.34;5041524;28;20036;-24
2022/04/24 02:05:00;;;;;;;10.07;9.07;;;;;;;7.86;58.56;99587.69;5039516;28;20104;-24
2022/04/24 02:07:25;;;;;;;10.70;9.60;;;;;;;7.82;58.89;99584.28;5041311;28;20496;-24
2022/04/24 02:09:50;;;;;;;10.43;9.07;;;;;;;7.81;58.69;99575.53;5045792;28;20099;-24
2022/04/24 02:12:16;;;;;;;10.27;9.18;;;;;;;7.78;58.86;99572.97;5044456;28;20036;-24
2022/04/24 02:14:41;;;;;;;11.38;10.05;;;;;;;7.80;58.82;99579.03;5047491;28;20073;-24
2022/04/24 02:17:06;;;;;;;10.93;9.77;;;;;;;7.77;58.60;99571.22;5047919;28;20040;-24
2022/04/24 02:19:32;;;;;;;10.00;8.75;;;;;;;7.75;58.63;99570.38;5050971;28;20427;-25
2022/04/24 02:21:57;;;;;;;10.60;9.25;;;;;;;7.75;58.73;99577.38;5048014;28;20040;-24
2022/04/24 02:24:22;;;;;;;11.02;9.18;;;;;;;7.74;58.67;99565.16;5045874;28;20056;-24
2022/04/24 02:26:47;;;;;;;10.38;9.27;;;;;;;7.73;58.85;99563.44;5044906;28;20039;-24
2022/04/24 02:29:13;;;;;;;10.48;9.38;;;;;;;7.71;59.17;99566.06;5045826;28;20021;-24
2022/04/24 02:31:38;;;;;;;11.57;10.38;;;;;;;7.70;59.12;99566.94;5044200;28;20114;-24
2022/04/24 02:34:03;;;;;;;11.45;10.15;;;;;;;7.68;59.45;99558.25;5041257;28;20032;-24
2022/04/24 02:36:29;;;;;;;10.73;8.93;;;;;;;7.68;59.41;99566.97;5044805;28;20484;-24
2022/04/24 02:38:54;;;;;;;9.43;8.38;;;;;;;7.67;58.85;99567.00;5044521;28;20036;-24
2022/04/24 02:41:19;;;;;;;10.63;9.52;;;;;;;7.65;58.94;99561.78;5038750;28;20037;-25
2022/04/24 02:43:45;;;;;;;9.73;8.73;;;;;;;7.64;59.34;99567.06;5040128;28;20060;-24
2022/04/24 02:46:10;;;;;;;12.48;9.50;;;;;;;7.62;59.18;99568.81;5038956;28;20104;-24
2022/04/24 02:48:35;;;;;;;11.07;9.95;;;;;;;7.55;58.95;99562.81;5039244;28;20436;-24
2022/04/24 02:51:01;;;;;;;10.32;8.73;;;;;;;7.57;59.06;99564.50;5040929;28;20032;-24
2022/04/24 02:53:26;;;;;;;10.43;9.43;;;;;;;7.57;59.16;99572.38;5044689;28;20036;-24
2022/04/24 02:55:51;;;;;;;11.23;8.77;;;;;;;7.54;59.43;99571.56;5045019;28;20045;-24
2022/04/24 02:58:19;;;;;;;14.25;9.63;;;;;;;7.54;58.95;99563.69;5039290;28;20120;-24
2022/04/24 03:00:49;;;;;;;9.85;8.82;;;;;;;7.51;59.42;99567.25;5040658;28;20603;-24
2022/04/24 03:03:18;;;;;;;10.20;9.05;;;;;;;7.50;59.23;99567.25;5036918;28;20056;-24
2022/04/24 03:05:43;;;;;;;10.23;9.10;;;;;;;7.47;59.47;99570.75;5027440;28;20544;-25
2022/04/24 03:08:09;;;;;;;11.63;8.82;;;;;;;7.47;59.29;99562.03;5046533;28;20115;-24
2022/04/24 03:10:35;;;;;;;11.68;9.73;;;;;;;7.43;59.45;99563.81;5048611;28;20028;-24
2022/04/24 03:13:01;;;;;;;10.18;8.85;;;;;;;7.42;59.37;99567.34;5048168;28;20477;-24
2022/04/24 03:15:26;;;;;;;10.18;9.02;;;;;;;7.40;59.02;99569.16;5042979;28;20060;-24
2022/04/24 03:17:54;;;;;;;10.43;9.32;;;;;;;7.39;59.27;99570.00;5043011;28;20033;-24
2022/04/24 03:20:20;;;;;;;12.00;10.20;;;;;;;7.37;59.14;99563.94;5041392;28;20029;-24
2022/04/24 03:22:45;;;;;;;9.98;8.98;;;;;;;7.35;59.37;99565.69;5039395;28;20032;-24
2022/04/24 03:25:11;;;;;;;11.10;9.05;;;;;;;7.32;59.05;99557.00;5045577;28;20021;-24
2022/04/24 03:27:37;;;;;;;10.65;8.45;;;;;;;7.31;59.25;99565.72;5046590;28;20028;-24
2022/04/24 03:30:04;;;;;;;10.25;9.05;;;;;;;7.30;59.09;99565.75;5043419;28;20477;-24
2022/04/24 03:32:33;;;;;;;10.10;8.95;;;;;;;7.26;59.24;99564.94;5045164;28;20408;-24
2022/04/24 03:34:59;;;;;;;11.35;8.73;;;;;;;7.26;58.96;99566.69;5045360;28;20396;-24
2022/04/24 03:37:24;;;;;;;10.52;9.35;;;;;;;7.23;59.52;99564.13;5042696;28;20029;-24
2022/04/24 03:39:49;;;;;;;11.20;9.35;;;;;;;7.21;59.25;99566.75;5042161;28;20029;-24
2022/04/24 03:42:14;;;;;;;11.25;8.75;;;;;;;7.19;59.30;99573.78;5036169;28;20065;-24
2022/04/24 03:44:40;;;;;;;9.07;7.57;;;;;;;7.18;59.37;99569.41;5042301;28;20061;-24
2022/04/24 03:47:06;;;;;;;9.95;8.52;;;;;;;7.16;59.28;99568.56;5038488;28;20033;-24
2022/04/24 03:49:32;;;;;;;10.48;9.38;;;;;;;7.13;59.47;99568.59;5039732;28;20029;-24
2022/04/24 03:51:57;;;;;;;10.07;8.98;;;;;;;7.11;59.38;99573.00;5040924;28;20512;-24
2022/04/24 03:54:22;;;;;;;10.00;8.57;;;;;;;7.08;59.79;99570.41;5045647;28;20147;-25
2022/04/24 03:56:48;;;;;;;10.27;8.75;;;;;;;7.08;59.31;99573.03;5024613;28;20045;-25
2022/04/24 03:59:13;;;;;;;10.00;8.75;;;;;;;7.05;59.42;99568.72;5042485;28;20405;-25
2022/04/24 04:01:39;;;;;;;9.85;8.82;;;;;;;7.03;59.21;99568.72;5044305;28;20500;-25
2022/04/24 04:04:04;;;;;;;9.90;8.38;;;;;;;7.03;59.27;99573.09;5040506;28;20098;-25
2022/04/24 04:06:29;;;;;;;11.18;9.43;;;;;;;7.00;59.58;99558.25;5041601;28;20032;-25
2022/04/24 04:08:55;;;;;;;9.38;8.38;;;;;;;6.98;59.54;99567.91;5046206;28;20112;-25
2022/04/24 04:11:20;;;;;;;10.40;9.10;;;;;;;6.95;59.58;99567.94;5049513;28;20048;-25
2022/04/24 04:13:46;;;;;;;9.52;8.63;;;;;;;6.95;59.54;99575.81;5039836;28;20032;-25
2022/04/24 04:16:11;;;;;;;10.20;9.15;;;;;;;6.93;58.97;99573.22;5047208;28;20063;-25
2022/04/24 04:18:37;;;;;;;11.95;8.80;;;;;;;6.93;59.66;99575.84;5045612;28;20087;-25
2022/04/24 04:21:02;;;;;;;9.88;8.50;;;;;;;6.90;59.84;99575.88;5041922;28;20158;-25
2022/04/24 04:23:27;;;;;;;11.55;9.57;;;;;;;6.89;59.69;99578.50;5042541;28;20029;-25
2022/04/24 04:25:53;;;;;;;9.75;8.75;;;;;;;6.89;59.50;99578.50;5041044;28;20115;-25
2022/04/24 04:28:18;;;;;;;10.23;9.10;;;;;;;6.85;59.51;99576.81;5042482;28;20025;-25
2022/04/24 04:30:43;;;;;;;11.50;10.27;;;;;;;6.84;60.02;99581.19;5045602;28;20044;-25
2022/04/24 04:33:09;;;;;;;9.00;8.20;;;;;;;6.83;59.56;99578.59;5042985;28;20024;-25
2022/04/24 04:35:35;;;;;;;11.15;9.10;;;;;;;6.82;59.77;99589.94;5046874;28;20033;-25
2022/04/24 04:38:00;;;;;;;10.45;9.30;;;;;;;6.79;59.71;99585.59;5045406;28;20032;-25
2022/04/24 04:40:26;;;;;;;9.98;8.38;;;;;;;6.78;60.04;99583.88;5040503;28;20025;-25
2022/04/24 04:42:51;;;;;;;10.85;8.57;;;;;;;6.76;59.59;99578.66;5043504;28;20035;-25
2022/04/24 04:45:17;;;;;;;11.55;9.02;;;;;;;6.75;59.90;99582.16;5044852;28;20405;-24
2022/04/24 04:47:43;;;;;;;11.52;10.32;;;;;;;6.74;59.59;99583.03;5044304;28;20032;-24
2022/04/24 04:50:09;;;;;;;10.02;8.88;;;;;;;6.73;60.07;99583.91;5043679;28;20029;-25
2022/04/24 04:52:34;;;;;;;11.35;9.27;;;;;;;6.73;60.11;99580.44;5042483;28;20025;-25
2022/04/24 04:55:00;;;;;;;11.20;9.68;;;;;;;6.71;60.40;99580.47;5047466;28;20033;-25
2022/04/24 04:57:25;;;;;;;10.45;9.35;;;;;;;6.71;60.42;99580.47;5050322;28;20071;-25
2022/04/24 04:59:51;;;;;;;10.23;9.13;;;;;;;6.71;60.13;99587.44;5048494;28;20077;-25
2022/04/24 05:02:16;;;;;;;10.00;8.82;;;;;;;6.69;60.27;99587.44;5050811;28;20029;-25
2022/04/24 05:04:43;;;;;;;10.07;8.98;;;;;;;6.69;60.25;99582.22;5063469;28;20029;-25
2022/04/24 05:07:11;;;;;;;11.20;9.32;;;;;;;6.70;59.79;99580.47;5049506;28;20132;-25
2022/04/24 05:09:38;;;;;;;11.38;9.00;;;;;;;6.71;59.92;99585.69;5047875;28;20024;-25
2022/04/24 05:12:04;;;;;;;10.32;8.48;;;;;;;6.70;60.13;99581.31;5047693;28;20029;-25
2022/04/24 05:14:30;;;;;;;10.00;8.98;;;;;;;6.70;60.09;99581.31;5048023;28;20032;-24
2022/04/24 05:16:56;;;;;;;12.20;9.77;;;;;;;6.72;60.30;99587.44;5049179;28;20033;-24
2022/04/24 05:19:22;;;;;;;14.20;10.10;;;;;;;6.72;60.68;99587.44;5047370;28;20021;-25
2022/04/24 05:21:47;;;;;;;11.00;8.70;;;;;;;6.72;60.62;99584.81;5046824;28;20492;-25
2022/04/24 05:24:12;;;;;;;9.98;8.98;;;;;;;6.72;60.51;99584.81;5044494;28;20095;-25
2022/04/24 05:26:39;;;;;;;10.43;9.13;;;;;;;6.75;60.39;99578.66;5043405;28;20028;-25
2022/04/24 05:29:04;;;;;;;10.52;9.38;;;;;;;6.76;61.11;99588.25;5045903;28;20025;-25
2022/04/24 05:31:30;;;;;;;9.95;8.82;;;;;;;6.78;60.98;99586.50;5043373;28;20079;-25
2022/04/24 05:33:56;;;;;;;11.52;10.18;;;;;;;6.78;60.85;99584.75;5046875;28;20033;-25
2022/04/24 05:36:21;;;;;;;11.73;9.43;;;;;;;6.80;61.38;99585.59;5037779;28;20028;-25
2022/04/24 05:38:46;;;;;;;10.90;9.48;;;;;;;6.83;60.88;99592.53;5042825;28;20032;-24
2022/04/24 05:41:12;;;;;;;11.52;10.30;;;;;;;6.84;61.16;99580.31;5046136;28;20032;-24
2022/04/24 05:43:37;;;;;;;12.82;10.55;;;;;;;6.85;61.09;99582.91;5043520;28;20056;-25
2022/04/24 05:46:02;;;;;;;12.30;9.63;;;;;;;6.88;61.02;99572.41;5042779;28;20031;-25
2022/04/24 05:48:27;;;;;;;13.32;9.82;;;;;;;6.92;61.53;99583.72;5048116;28;20033;-25
2022/04/24 05:50:53;;;;;;;11.38;9.77;;;;;;;6.96;61.11;99579.28;5045118;28;20029;-25
2022/04/24 05:53:18;;;;;;;12.40;9.43;;;;;;;6.98;61.41;99575.78;5042114;28;20037;-25
2022/04/24 05:55:44;;;;;;;11.30;9.57;;;;;;;7.01;61.46;99580.97;5044124;28;20159;-25
2022/04/24 05:58:09;;;;;;;11.65;9.90;;;;;;;7.04;61.55;99574.84;5038167;28;20029;-24
2022/04/24 06:00:36;;;;;;;12.48;10.25;;;;;;;7.09;61.84;99580.00;5041375;28;20366;-24
2022/04/24 06:03:02;;;;;;;13.65;9.77;;;;;;;7.14;61.78;99580.84;5043642;28;20032;-25
2022/04/24 06:05:27;;;;;;;12.52;9.82;;;;;;;7.19;62.24;99573.78;5036397;28;20200;-25
2022/04/24 06:07:54;;;;;;;12.30;10.60;;;;;;;7.22;62.28;99578.97;5045770;28;20494;-26
2022/04/24 06:10:21;;;;;;;12.48;9.82;;;;;;;7.27;62.79;99574.53;5043308;28;20028;-25
2022/04/24 06:12:48;;;;;;;12.23;10.35;;;;;;;7.32;62.59;99577.97;5045601;28;20020;-24
2022/04/24 06:15:20;;;;;;;12.30;10.35;;;;;;;7.37;62.36;99570.03;5045656;28;20017;-25
2022/04/24 06:17:48;;;;;;;;;;;;;;;7.43;62.87;99563.81;5045010;28;20032;-25
2022/04/24 06:20:14;;;;;;;12.30;10.15;;;;;;;7.49;62.50;99557.63;5045575;28;19924;-25
2022/04/24 06:22:51;;;;;;;12.13;10.27;;;;;;;7.55;63.10;99560.19;5040663;28;20047;-25
2022/04/24 06:25:28;;;;;;;16.02;11.60;;;;;;;7.63;62.88;99565.28;5042083;28;20083;-25
2022/04/24 06:27:53;;;;;;;13.43;11.15;;;;;;;7.68;63.10;99563.50;5041066;28;20075;-23
2022/04/24 06:30:23;;;;;;;12.73;10.80;;;;;;;7.75;63.22;99559.00;5040417;28;20115;-24
2022/04/24 06:32:48;;;;;;;13.25;10.95;;;;;;;7.81;62.30;99545.78;5043682;28;20036;-23
2022/04/24 06:35:15;;;;;;;13.98;11.60;;;;;;;7.89;62.38;99551.78;5045437;28;20070;-23
2022/04/24 06:37:42;;;;;;;14.07;10.68;;;;;;;7.98;62.51;99549.91;5042129;28;20112;-23
2022/04/24 06:40:09;;;;;;;11.77;10.57;;;;;;;8.04;62.40;99545.41;5042061;28;20033;-24
2022/04/24 06:42:45;;;;;;;12.65;11.35;;;;;;;8.11;62.70;99530.44;5041517;28;20022;-24
2022/04/24 06:45:11;;;;;;;12.55;11.25;;;;;;;8.19;62.66;99538.16;5043633;28;20032;-23
2022/04/24 06:47:36;;;;;;;13.88;10.45;;;;;;;8.29;62.94;99536.22;5042734;28;20111;-24
2022/04/24 06:50:01;;;;;;;12.13;10.80;;;;;;;8.37;62.14;99528.22;5044022;28;20028;-23
2022/04/24 06:52:27;;;;;;;17.38;12.32;;;;;;;8.44;62.94;99521.97;5047022;28;20029;-23
2022/04/24 06:54:52;;;;;;;13.18;11.80;;;;;;;8.53;63.09;99524.44;5047277;28;20013;-24
2022/04/24 06:57:17;;;;;;;14.90;11.88;;;;;;;8.63;62.98;99516.41;5046389;28;20575;-23
2022/04/24 06:59:43;;;;;;;14.00;12.10;;;;;;;8.73;62.86;99513.53;5045000;28;20087;-23
2022/04/24 07:02:08;;;;;;;13.20;11.25;;;;;;;8.82;62.60;99519.50;5048677;28;20033;-23
2022/04/24 07:04:33;;;;;;;13.80;12.27;;;;;;;8.93;62.40;99514.00;5033401;28;20032;-23
2022/04/24 07:06:59;;;;;;;13.48;12.05;;;;;;;9.03;62.61;99512.94;5040206;28;20036;-25
2022/04/24 07:09:24;;;;;;;13.77;11.77;;;;;;;9.16;62.43;99510.03;5037807;28;20021;-24
2022/04/24 07:11:49;;;;;;;16.30;12.52;;;;;;;9.23;62.24;99509.00;5041149;28;20029;-24
2022/04/24 07:14:15;;;;;;;13.00;10.65;;;;;;;9.36;62.02;99501.69;5045475;28;20029;-23
2022/04/24 07:16:41;;;;;;;13.63;12.25;;;;;;;9.44;62.07;99498.91;5040953;28;20017;-24
2022/04/24 07:19:06;;;;;;;14.02;12.57;;;;;;;9.56;61.93;99495.97;5042746;28;20033;-24
2022/04/24 07:21:32;;;;;;;13.18;11.85;;;;;;;9.65;62.10;99500.16;5045125;28;20666;-24
2022/04/24 07:23:57;;;;;;;14.10;11.98;;;;;;;9.74;61.44;99496.44;5039239;28;20021;-23
2022/04/24 07:26:22;;;;;;;13.25;11.63;;;;;;;9.87;61.85;99494.38;5044317;28;20032;-23
2022/04/24 07:28:48;;;;;;;17.60;13.05;;;;;;;9.98;61.50;99483.53;5036850;28;20342;-24
2022/04/24 07:31:14;;;;;;;14.82;12.02;;;;;;;10.09;61.70;99484.13;5043688;28;20529;-24
2022/04/24 07:33:40;;;;;;;13.55;11.80;;;;;;;10.22;62.06;99483.78;5040746;28;20365;-24
2022/04/24 07:36:05;;;;;;;15.18;12.77;;;;;;;10.32;61.47;99485.28;5043208;28;20036;-24
2022/04/24 07:38:31;;;;;;;17.77;14.10;;;;;;;10.42;61.50;99492.94;5041182;28;20503;-24
2022/04/24 07:40:56;;;;;;;14.00;12.50;;;;;;;10.57;61.68;99486.41;5040831;28;20028;-24
2022/04/24 07:43:21;;;;;;;14.45;12.93;;;;;;;10.70;62.23;99486.94;5041326;28;20033;-24
2022/04/24 07:45:47;;;;;;;14.73;12.38;;;;;;;10.82;61.80;99491.84;5040531;28;20082;-24
2022/04/24 07:48:14;;;;;;;14.20;12.68;;;;;;;10.93;61.17;99488.03;5044192;28;20083;-23
2022/04/24 07:50:49;;;;;;;15.55;13.00;;;;;;;11.03;61.17;99482.44;5044073;28;20370;-24
2022/04/24 07:53:16;;;;;;;14.95;12.95;;;;;;;11.16;61.18;99490.84;5042689;28;20374;-23
2022/04/24 07:55:42;;;;;;;15.80;12.77;;;;;;;11.25;59.77;99494.09;5039314;28;20044;-23
2022/04/24 07:58:08;;;;;;;14.13;12.48;;;;;;;11.34;60.26;99487.69;5041907;28;20040;-23
2022/04/24 08:00:33;;;;;;;16.30;13.38;;;;;;;11.45;59.58;99487.31;5043364;28;20397;-24
2022/04/24 08:03:01;;;;;;;14.10;12.60;;;;;;;11.64;62.09;99485.81;5043750;28;20063;-23
2022/04/24 08:05:30;;;;;;;14.70;13.20;;;;;;;11.80;62.68;99493.22;5041411;28;20112;-23
2022/04/24 08:07:57;;;;;;;14.00;11.93;;;;;;;11.90;61.37;99483.22;5041545;28;20021;-23
2022/04/24 08:10:25;;;;;;;14.13;12.73;;;;;;;11.97;59.78;99478.63;5043984;28;20021;-23
2022/04/24 08:12:51;;;;;;;14.90;12.73;;;;;;;12.06;58.86;99488.88;5040184;28;21510;-24
2022/04/24 08:15:17;;;;;;;15.05;12.55;;;;;;;12.25;61.37;99490.91;5038920;28;20563;-25
2022/04/24 08:17:43;;;;;;;14.27;12.80;;;;;;;12.27;58.49;99483.78;5041244;28;20020;-25
2022/04/24 08:20:09;;;;;;;13.82;12.15;;;;;;;12.47;60.84;99484.84;5048034;28;21251;-26
2022/04/24 08:22:49;;;;;;;17.20;12.55;;;;;;;12.54;59.01;99491.66;5042414;28;20447;-26
2022/04/24 08:25:17;;;;;;;13.93;12.63;;;;;;;12.63;58.98;99488.66;5040856;28;20144;-25
2022/04/24 08:27:43;;;;;;;13.95;12.57;;;;;;;12.75;58.61;99489.13;5039386;28;20025;-25
2022/04/24 08:30:10;;;;;;;14.30;11.85;;;;;;;12.87;58.14;99486.00;5043178;28;20094;-24
2022/04/24 08:32:35;;;;;;;15.25;13.60;;;;;;;13.00;58.74;99488.22;5044511;28;20436;-25
2022/04/24 08:35:01;;;;;;;13.75;12.32;;;;;;;13.08;58.43;99492.25;5044808;28;20477;-25
2022/04/24 08:37:27;;;;;;;14.50;12.55;;;;;;;13.23;59.17;99491.75;5044066;28;20025;-24
2022/04/24 08:39:53;;;;;;;13.10;11.52;;;;;;;13.33;59.16;99485.16;5043455;28;20040;-25
2022/04/24 08:42:21;;;;;;;13.93;11.98;;;;;;;13.37;57.54;99484.09;5043216;28;20487;-26
2022/04/24 08:44:47;;;;;;;15.60;12.32;;;;;;;13.45;57.46;99475.88;5040768;28;20087;-26
2022/04/24 08:47:15;;;;;;;14.40;11.73;;;;;;;13.55;56.62;99479.03;5044821;28;20028;-26
2022/04/24 08:49:40;;;;;;;13.93;12.43;;;;;;;13.67;57.13;99482.97;5041244;28;20112;-26
2022/04/24 08:52:06;;;;;;;14.02;12.63;;;;;;;13.85;58.56;99476.03;5043782;28;20023;-25
2022/04/24 08:54:31;;;;;;;15.55;13.52;;;;;;;14.00;58.82;99481.63;5040348;28;20477;-25
2022/04/24 08:56:58;;;;;;;17.08;12.13;;;;;;;14.22;57.53;99477.13;5038814;28;20022;-25
2022/04/24 08:59:23;;;;;;;15.18;11.95;;;;;;;14.31;57.90;99475.00;5035847;28;20060;-26
2022/04/24 09:01:50;;;;;;;12.68;11.38;;;;;;;14.47;57.64;99477.81;5037234;28;20605;-25
2022/04/24 09:04:15;;;;;;;13.88;11.20;;;;;;;14.60;58.52;99475.47;5037607;28;20032;-27
2022/04/24 09:06:41;;;;;;;12.55;11.25;;;;;;;14.72;57.75;99472.28;5028597;28;20032;-25
2022/04/24 09:09:07;;;;;;;12.35;11.15;;;;;;;14.85;58.51;99479.72;5040951;28;20090;-26
2022/04/24 09:11:33;;;;;;;12.77;11.48;;;;;;;14.94;56.26;99476.63;5030665;28;20033;-25
2022/04/24 09:16:47;;;;;;;14.75;12.43;;;;;;;15.41;51.67;99473.56;5030137;28;20040;-26
2022/04/24 09:19:22;;;;;;;13.32;10.98;;;;;;;15.31;48.35;99470.50;5044362;28;20029;-25
2022/04/24 09:21:49;;;;;;;12.15;10.93;;;;;;;15.45;50.28;99473.38;5039642;28;20025;-26
2022/04/24 09:24:14;;;;;;;11.38;10.27;;;;;;;15.57;51.62;99482.50;5044501;28;20026;-26
2022/04/24 09:27:10;;;;;;;11.65;10.38;;;;;;;15.70;52.03;99480.13;5045114;28;20319;-27
2022/04/24 09:29:35;;;;;;;13.45;10.55;;;;;;;15.76;51.38;99474.50;5033031;28;20374;-26
2022/04/24 09:32:01;;;;;;;15.13;9.65;;;;;;;15.81;50.36;99481.38;5038827;28;20094;-30
2022/04/24 09:34:31;;;;;;;11.25;9.60;;;;;;;15.91;51.19;99472.00;5040211;28;20059;-27
2022/04/24 09:37:02;;;;;;;10.55;9.45;;;;;;;15.98;50.81;99473.47;5039279;28;20025;-26
2022/04/24 09:39:29;;;;;;;11.90;10.70;;;;;;;15.63;48.42;99479.56;5042408;28;20028;-27
2022/04/24 09:42:30;;;;;;;11.20;10.13;;;;;;;15.85;49.09;99473.19;5046042;28;20020;-27
2022/04/24 09:44:55;;;;;;;11.30;9.80;;;;;;;15.96;49.05;99470.00;5008733;28;20372;-25
2022/04/24 09:47:24;;;;;;;10.13;9.13;;;;;;;16.08;49.50;99467.66;5034910;28;20572;-25
2022/04/24 09:49:50;;;;;;;11.35;9.30;;;;;;;16.14;49.55;99472.66;5042089;28;20045;-26
2022/04/24 09:52:25;;;;;;;10.65;9.55;;;;;;;16.20;49.65;99476.81;5035706;28;20025;-26
2022/04/24 09:54:54;;;;;;;9.77;8.73;;;;;;;16.23;49.52;99466.84;5034753;28;20824;-25
2022/04/24 09:57:23;;;;;;;11.13;9.65;;;;;;;16.27;49.19;99468.41;5046939;28;20035;-27
2022/04/24 09:59:50;;;;;;;10.65;9.50;;;;;;;16.19;47.42;99475.94;5047172;28;20037;-27
2022/04/24 10:02:17;;;;;;;11.05;9.77;;;;;;;16.19;48.69;99465.31;5048431;28;20401;-28
2022/04/24 10:04:44;;;;;;;9.63;8.68;;;;;;;16.25;48.94;99467.66;5047076;28;20115;-30
2022/04/24 10:07:10;;;;;;;9.77;8.88;;;;;;;16.28;48.83;99472.78;5046205;28;20036;-30
2022/04/24 10:09:38;;;;;;;11.95;10.05;;;;;;;16.31;49.10;99477.13;5049224;28;20469;-29
2022/04/24 10:12:17;;;;;;;9.82;8.82;;;;;;;16.33;49.39;99471.69;5044220;28;20036;-28
2022/04/24 10:14:55;;;;;;;10.00;9.18;;;;;;;16.29;49.18;99479.84;5046460;28;21525;-28
2022/04/24 10:17:43;;;;;;;9.93;9.02;;;;;;;16.28;48.64;99475.44;5039583;28;20075;-29
2022/04/24 10:20:47;;;;;;;10.40;8.73;;;;;;;16.28;48.58;99474.59;5045291;28;20040;-28
2022/04/24 10:23:12;;;;;;;10.45;9.45;;;;;;;16.27;48.67;99470.19;5039966;28;20083;-29
2022/04/24 10:25:40;;;;;;;9.95;8.95;;;;;;;16.27;48.83;99463.09;5041524;28;20477;-27
2022/04/24 10:28:13;;;;;;;9.77;8.88;;;;;;;16.27;50.20;99468.41;5045904;28;20032;-29
2022/04/24 10:30:40;;;;;;;9.32;8.48;;;;;;;16.22;49.33;99470.47;5041081;28;20032;-27
2022/04/24 10:33:39;;;;;;;10.20;9.20;;;;;;;16.23;49.36;99471.31;5043033;28;20074;-28
2022/04/24 10:36:15;;;;;;;9.70;8.80;;;;;;;16.22;49.98;99470.47;5018723;28;20099;-28
2022/04/24 10:38:52;;;;;;;9.52;8.63;;;;;;;16.18;49.48;99465.38;5061420;28;20025;-28
2022/04/24 10:41:20;;;;;;;10.20;9.20;;;;;;;16.17;49.47;99461.84;5043453;28;20044;-28
2022/04/24 10:43:48;;;;;;;9.88;8.98;;;;;;;16.16;49.45;99470.78;5043119;28;20481;-28
2022/04/24 10:46:33;;;;;;;10.48;9.23;;;;;;;16.15;50.00;99461.09;5046528;28;20025;-28
2022/04/24 10:49:09;;;;;;;10.93;9.07;;;;;;;16.14;50.69;99454.06;5042172;28;20036;-28
2022/04/24 10:51:36;;;;;;;9.68;8.88;;;;;;;16.12;50.80;99455.91;5053556;28;20021;-30
2022/04/24 10:54:06;;;;;;;9.77;8.75;;;;;;;16.10;50.78;99455.13;5038737;28;20026;-29
2022/04/24 10:56:31;;;;;;;11.05;10.02;;;;;;;16.11;50.11;99456.88;5044235;28;20498;-28
2022/04/24 10:59:10;;;;;;;9.82;8.85;;;;;;;16.09;50.24;99454.28;5038904;28;20025;-29
2022/04/24 11:01:37;;;;;;;9.88;8.88;;;;;;;16.09;50.18;99461.38;5041550;28;20461;-29
2022/04/24 11:04:06;;;;;;;10.38;9.30;;;;;;;16.10;50.38;99452.47;5040168;28;20082;-28
2022/04/24 11:06:32;;;;;;;11.07;9.95;;;;;;;16.10;50.71;99449.81;5046335;28;20090;-30
2022/04/24 11:09:06;;;;;;;13.27;10.05;;;;;;;15.97;49.30;99455.75;5044078;28;20488;-28
2022/04/24 11:11:33;;;;;;;12.10;10.45;;;;;;;16.05;49.19;99451.84;5042254;28;20370;-29
2022/04/24 11:14:00;;;;;;;11.50;9.93;;;;;;;16.08;49.91;99454.34;5045763;28;20565;-29
2022/04/24 11:16:26;;;;;;;11.00;9.85;;;;;;;16.11;50.22;99451.53;5043465;28;20028;-29
2022/04/24 11:18:52;;;;;;;10.80;9.80;;;;;;;16.13;50.29;99444.31;5048235;28;20077;-28
2022/04/24 11:21:19;;;;;;;10.63;9.50;;;;;;;16.11;50.16;99441.75;5041201;28;20029;-28
2022/04/24 11:23:45;;;;;;;13.10;10.52;;;;;;;16.16;49.99;99438.84;5046695;28;20160;-27
2022/04/24 11:26:12;;;;;;;11.50;10.40;;;;;;;16.17;50.29;99435.25;5042937;28;20461;-28
2022/04/24 11:28:46;;;;;;;11.20;9.60;;;;;;;16.22;50.60;99443.88;5029129;28;20028;-28
2022/04/24 11:31:20;;;;;;;11.05;10.02;;;;;;;16.20;50.04;99445.72;5037523;28;20088;-28